Time;durP1;ratioP1;P1;durP2;ratioP2;P2;SDS_P1;SDS_P2;PMS_P1;PMS_P2;Temp;Humidity;BMP_temperature;BMP_pressure;BME280_temperature;BME280_humidity;BME280_pressure;Samples;Min_cycle;Max_cycle;Signal;HPM_P1;HPM_P2
2022/10/28 00:01:03;;;;;;;14.60;9.35;;;15.30;99.90;;;;;;5012214;28;20127;-72
2022/10/28 00:03:29;;;;;;;14.82;9.18;;;14.90;99.90;;;;;;5011805;28;20052;-72
2022/10/28 00:06:01;;;;;;;15.93;7.88;;;15.10;99.90;;;;;;5013443;28;20041;-72
2022/10/28 00:08:27;;;;;;;19.90;9.47;;;15.20;99.90;;;;;;5012070;28;20052;-72
2022/10/28 00:11:20;;;;;;;14.15;9.07;;;14.90;99.90;;;;;;5012014;28;20287;-72
2022/10/28 00:13:46;;;;;;;17.70;8.82;;;15.20;99.90;;;;;;5012225;28;20129;-73
2022/10/28 00:16:16;;;;;;;16.00;9.23;;;15.20;99.90;;;;;;5013255;28;20447;-73
2022/10/28 00:18:42;;;;;;;14.45;8.65;;;15.20;99.90;;;;;;5011942;28;20633;-73
2022/10/28 00:21:11;;;;;;;18.10;9.70;;;15.00;99.90;;;;;;5013101;28;20496;-72
2022/10/28 00:23:37;;;;;;;17.77;9.32;;;15.20;99.90;;;;;;5011622;28;20053;-72
2022/10/28 00:26:15;;;;;;;19.15;10.10;;;14.90;99.90;;;;;;5011684;28;20041;-72
2022/10/28 00:28:43;;;;;;;17.38;10.55;;;15.30;99.90;;;;;;5011722;28;20083;-73
2022/10/28 00:31:10;;;;;;;17.08;10.00;;;15.00;99.90;;;;;;5013035;28;20037;-72
2022/10/28 00:33:35;;;;;;;16.35;9.73;;;15.40;99.90;;;;;;5011219;28;20034;-72
2022/10/28 00:36:19;;;;;;;17.45;9.98;;;15.30;99.90;;;;;;5012889;28;20060;-72
2022/10/28 00:38:47;;;;;;;20.77;9.48;;;15.40;99.90;;;;;;5013041;28;20091;-72
2022/10/28 00:41:20;;;;;;;17.02;9.70;;;15.40;99.90;;;;;;5012818;28;20120;-73
2022/10/28 00:44:27;;;;;;;15.40;9.90;;;15.40;99.90;;;;;;5011331;28;20046;-72
2022/10/28 00:46:53;;;;;;;15.23;9.57;;;15.50;99.90;;;;;;4991506;28;20107;-72
2022/10/28 00:49:27;;;;;;;14.43;9.48;;;15.10;99.90;;;;;;5011435;28;20439;-72
2022/10/28 00:51:58;;;;;;;16.63;10.02;;;15.50;99.90;;;;;;5012697;28;20034;-72
2022/10/28 00:54:25;;;;;;;19.08;9.40;;;15.40;99.90;;;;;;5012177;28;20041;-72
2022/10/28 00:56:55;;;;;;;16.85;10.30;;;15.10;99.90;;;;;;5011528;28;20105;-72
2022/10/28 00:59:42;;;;;;;18.85;9.25;;;15.10;99.90;;;;;;5012628;28;20492;-72
2022/10/28 01:02:08;;;;;;;16.52;10.02;;;15.60;99.90;;;;;;5010918;28;20121;-72
2022/10/28 01:04:34;;;;;;;21.88;10.50;;;15.40;99.90;;;;;;5010864;28;20173;-72
2022/10/28 01:07:01;;;;;;;17.00;10.32;;;15.10;99.90;;;;;;5010955;28;20046;-72
2022/10/28 01:09:27;;;;;;;20.08;10.57;;;15.20;99.90;;;;;;5012433;28;20050;-72
2022/10/28 01:12:10;;;;;;;22.13;10.23;;;15.10;99.90;;;;;;5010982;28;20068;-72
2022/10/28 01:15:18;;;;;;;15.23;9.90;;;15.40;99.90;;;;;;5012218;28;20078;-72
2022/10/28 01:18:08;;;;;;;13.00;9.18;;;15.10;99.90;;;;;;4984018;28;20416;-72
2022/10/28 01:20:45;;;;;;;15.77;9.93;;;15.30;99.90;;;;;;5012280;28;20053;-72
2022/10/28 01:23:37;;;;;;;18.98;10.60;;;15.00;99.90;;;;;;5010381;28;20120;-73
2022/10/28 01:26:28;;;;;;;16.45;10.25;;;15.20;99.90;;;;;;5012132;28;20041;-72
2022/10/28 01:29:19;;;;;;;13.27;10.00;;;15.30;99.90;;;;;;5010730;28;20588;-73
2022/10/28 01:32:01;;;;;;;18.88;10.77;;;15.30;99.90;;;;;;5010712;28;20075;-72
2022/10/28 01:34:54;;;;;;;20.87;10.43;;;15.20;99.90;;;;;;5010502;28;20095;-72
2022/10/28 01:37:34;;;;;;;18.13;10.18;;;15.10;99.90;;;;;;5010670;28;20045;-72
2022/10/28 01:40:31;;;;;;;19.40;10.63;;;15.00;99.90;;;;;;5010723;28;20046;-72
2022/10/28 01:43:15;;;;;;;16.27;9.93;;;15.20;99.90;;;;;;5010306;28;20053;-72
2022/10/28 01:45:48;;;;;;;16.17;10.85;;;14.90;99.90;;;;;;5011988;28;20042;-72
2022/10/28 01:48:19;;;;;;;15.90;10.20;;;14.90;99.90;;;;;;5010770;28;20054;-72
2022/10/28 01:50:55;;;;;;;17.58;10.05;;;14.80;99.90;;;;;;5010539;28;20038;-73
2022/10/28 01:53:26;;;;;;;15.77;9.07;;;14.90;99.90;;;;;;5011636;28;20030;-72
2022/10/28 01:55:54;;;;;;;14.05;9.60;;;14.80;99.90;;;;;;5010723;28;20057;-72
2022/10/28 01:58:25;;;;;;;18.65;11.68;;;15.10;99.90;;;;;;5014661;28;20034;-72
2022/10/28 02:00:50;;;;;;;17.40;10.57;;;14.80;99.90;;;;;;5014525;28;20081;-72
2022/10/28 02:03:16;;;;;;;26.77;12.77;;;15.00;99.90;;;;;;5014007;28;20080;-72
2022/10/28 02:05:55;;;;;;;15.38;10.50;;;15.00;99.90;;;;;;5015841;28;20557;-72
2022/10/28 02:08:27;;;;;;;17.75;10.82;;;15.00;99.90;;;;;;5014225;28;20538;-72
2022/10/28 02:11:04;;;;;;;17.65;11.70;;;14.70;99.90;;;;;;5015699;28;20066;-73
2022/10/28 02:13:43;;;;;;;20.65;12.20;;;14.80;99.90;;;;;;5015131;28;20164;-72
2022/10/28 02:16:16;;;;;;;20.95;13.00;;;14.90;99.90;;;;;;5014299;28;20078;-72
2022/10/28 02:18:54;;;;;;;20.88;12.38;;;14.70;99.90;;;;;;5015529;28;20053;-72
2022/10/28 02:21:35;;;;;;;19.92;11.98;;;14.90;99.90;;;;;;5015784;28;20042;-72
2022/10/28 02:24:12;;;;;;;21.80;13.35;;;14.90;99.90;;;;;;5013682;28;20380;-72
2022/10/28 02:26:46;;;;;;;23.30;12.45;;;14.70;99.90;;;;;;5013969;28;20045;-73
2022/10/28 02:29:25;;;;;;;21.20;12.30;;;15.00;99.90;;;;;;5015232;28;20093;-72
2022/10/28 02:31:56;;;;;;;19.65;13.13;;;14.60;99.90;;;;;;5015280;28;20041;-72
2022/10/28 02:34:32;;;;;;;21.13;13.40;;;15.00;99.90;;;;;;5014810;28;20033;-72
2022/10/28 02:37:02;;;;;;;21.23;12.52;;;14.70;99.90;;;;;;5013763;28;20121;-72
2022/10/28 02:39:51;;;;;;;23.98;13.85;;;14.90;99.90;;;;;;5015241;28;20088;-72
2022/10/28 02:42:27;;;;;;;23.02;13.27;;;15.00;99.90;;;;;;5014830;28;20041;-72
2022/10/28 02:45:03;;;;;;;22.52;12.40;;;14.70;99.90;;;;;;5013618;28;20096;-72
2022/10/28 02:47:33;;;;;;;22.05;13.45;;;14.90;99.90;;;;;;5013651;28;20052;-72
2022/10/28 02:50:03;;;;;;;20.50;13.55;;;15.00;99.90;;;;;;5014927;28;20053;-72
2022/10/28 02:52:31;;;;;;;25.75;13.05;;;14.70;99.90;;;;;;5014446;28;20052;-72
2022/10/28 02:54:59;;;;;;;21.90;12.93;;;14.90;99.90;;;;;;5013509;28;20034;-73
2022/10/28 02:57:41;;;;;;;21.65;13.38;;;14.60;99.90;;;;;;5013590;28;20042;-72
2022/10/28 03:00:13;;;;;;;21.63;13.02;;;14.80;99.90;;;;;;5013469;28;20104;-72
2022/10/28 03:02:38;;;;;;;24.20;13.88;;;14.90;99.90;;;;;;5013001;28;20052;-72
2022/10/28 03:05:05;;;;;;;26.67;13.93;;;14.70;99.90;;;;;;5014646;28;20124;-72
2022/10/28 03:07:31;;;;;;;22.15;13.07;;;14.60;99.90;;;;;;5013280;28;20042;-72
2022/10/28 03:09:56;;;;;;;24.88;12.90;;;14.80;99.90;;;;;;5012348;28;20595;-73
2022/10/28 03:12:22;;;;;;;26.88;13.90;;;14.50;99.90;;;;;;5014259;28;20036;-72
2022/10/28 03:14:47;;;;;;;19.88;13.40;;;14.50;99.90;;;;;;5014338;28;20042;-72
2022/10/28 03:17:13;;;;;;;27.95;15.00;;;14.60;99.90;;;;;;5013115;28;20057;-72
2022/10/28 03:19:38;;;;;;;21.98;13.25;;;14.70;99.90;;;;;;5013086;28;20050;-72
2022/10/28 03:22:04;;;;;;;24.90;15.32;;;14.70;99.90;;;;;;5012785;28;20104;-72
2022/10/28 03:24:29;;;;;;;21.83;13.52;;;14.40;99.90;;;;;;5013886;28;20045;-72
2022/10/28 03:26:56;;;;;;;21.48;14.30;;;14.60;99.90;;;;;;5014436;28;20048;-73
2022/10/28 03:29:21;;;;;;;22.08;14.43;;;14.40;99.90;;;;;;5012777;28;20399;-72
2022/10/28 03:31:47;;;;;;;30.08;14.65;;;14.70;99.90;;;;;;5012847;28;20037;-72
2022/10/28 03:34:13;;;;;;;26.42;14.93;;;14.40;99.90;;;;;;5013731;28;20034;-72
2022/10/28 03:36:38;;;;;;;25.05;14.23;;;14.40;99.90;;;;;;5013901;28;20034;-73
2022/10/28 03:39:04;;;;;;;25.88;14.50;;;14.40;99.90;;;;;;5013877;28;20160;-72
2022/10/28 03:41:29;;;;;;;29.20;15.15;;;14.80;99.90;;;;;;5012630;28;20124;-72
2022/10/28 03:43:55;;;;;;;25.23;15.27;;;14.60;99.90;;;;;;5013480;28;20151;-72
2022/10/28 03:46:20;;;;;;;26.65;14.98;;;14.70;99.90;;;;;;5012532;28;20099;-72
2022/10/28 03:48:46;;;;;;;23.40;15.23;;;14.60;99.90;;;;;;5013732;28;20050;-72
2022/10/28 03:51:12;;;;;;;22.73;15.25;;;14.70;99.90;;;;;;5013743;28;20034;-72
2022/10/28 03:53:37;;;;;;;24.95;15.55;;;14.60;99.90;;;;;;5011930;28;20121;-72
2022/10/28 03:56:03;;;;;;;24.77;14.48;;;14.40;99.90;;;;;;5013800;28;20183;-72
2022/10/28 03:58:29;;;;;;;25.70;15.02;;;14.40;99.90;;;;;;5013583;28;20049;-72
2022/10/28 04:00:55;;;;;;;25.67;14.95;;;14.70;99.90;;;;;;5013638;28;20397;-72
2022/10/28 04:03:22;;;;;;;26.48;15.23;;;14.60;99.90;;;;;;5011873;28;20046;-72
2022/10/28 04:05:48;;;;;;;29.17;15.20;;;14.70;99.90;;;;;;5012455;28;20607;-72
2022/10/28 04:08:17;;;;;;;23.77;15.05;;;14.60;99.90;;;;;;5011988;28;20077;-72
2022/10/28 04:10:43;;;;;;;24.60;14.45;;;14.70;99.90;;;;;;5013561;28;20034;-72
2022/10/28 04:13:10;;;;;;;26.23;15.45;;;14.60;99.90;;;;;;5011662;28;20065;-72
2022/10/28 04:15:35;;;;;;;28.58;15.57;;;14.50;99.90;;;;;;5013357;28;20143;-72
2022/10/28 04:18:01;;;;;;;28.40;15.45;;;14.40;99.90;;;;;;5012181;28;20106;-72
2022/10/28 04:20:27;;;;;;;23.50;16.02;;;14.30;99.90;;;;;;5012324;28;20034;-73
2022/10/28 04:22:53;;;;;;;29.02;14.00;;;14.40;99.90;;;;;;5011178;28;20048;-73
2022/10/28 04:25:20;;;;;;;27.17;15.68;;;14.40;99.90;;;;;;5013084;28;20458;-73
2022/10/28 04:27:45;;;;;;;23.00;14.73;;;14.40;99.90;;;;;;5011821;28;20084;-72
2022/10/28 04:30:11;;;;;;;23.63;14.43;;;14.20;99.90;;;;;;5013032;28;20081;-73
2022/10/28 04:32:37;;;;;;;24.48;14.93;;;14.30;99.90;;;;;;5011215;28;20120;-73
2022/10/28 04:35:03;;;;;;;23.88;13.82;;;14.20;99.90;;;;;;5011599;28;20555;-73
2022/10/28 04:37:29;;;;;;;21.75;14.52;;;14.20;99.90;;;;;;5012790;28;20091;-73
2022/10/28 04:39:54;;;;;;;24.50;13.75;;;14.40;99.90;;;;;;5011548;28;20041;-73
2022/10/28 04:42:22;;;;;;;27.42;14.38;;;14.30;99.90;;;;;;5012714;28;20127;-73
2022/10/28 04:44:48;;;;;;;23.17;13.63;;;14.30;99.90;;;;;;5011489;28;20042;-73
2022/10/28 04:47:13;;;;;;;21.05;13.57;;;14.20;99.90;;;;;;5012634;28;20389;-73
2022/10/28 04:49:39;;;;;;;26.33;13.60;;;14.00;99.90;;;;;;5011346;28;20038;-73
2022/10/28 04:52:04;;;;;;;25.83;14.10;;;14.30;99.90;;;;;;5011192;28;20034;-72
2022/10/28 04:54:30;;;;;;;21.25;13.00;;;14.20;99.90;;;;;;5012523;28;20040;-73
2022/10/28 04:56:55;;;;;;;23.50;14.95;;;14.10;99.90;;;;;;5012676;28;20042;-73
2022/10/28 04:59:21;;;;;;;22.45;13.93;;;13.90;99.90;;;;;;5011466;28;20050;-72
2022/10/28 05:01:46;;;;;;;21.45;12.52;;;13.90;99.90;;;;;;5011413;28;20519;-73
2022/10/28 05:04:12;;;;;;;23.00;13.35;;;14.00;99.90;;;;;;5010806;28;20046;-73
2022/10/28 05:06:37;;;;;;;19.60;13.25;;;14.10;99.90;;;;;;5011065;28;20045;-73
2022/10/28 05:09:03;;;;;;;21.83;14.43;;;13.80;99.90;;;;;;5012284;28;20603;-73
2022/10/28 05:11:28;;;;;;;24.17;13.48;;;13.90;99.90;;;;;;5011088;28;20048;-73
2022/10/28 05:13:54;;;;;;;16.80;12.52;;;14.00;99.90;;;;;;5011894;28;20044;-73
2022/10/28 05:16:20;;;;;;;25.02;13.18;;;13.90;99.90;;;;;;5012279;28;20072;-73
2022/10/28 05:18:45;;;;;;;19.00;13.02;;;14.00;99.90;;;;;;5010914;28;20392;-73
2022/10/28 05:21:11;;;;;;;18.00;12.27;;;13.70;99.90;;;;;;5011019;28;20048;-73
2022/10/28 05:23:36;;;;;;;19.67;12.52;;;13.80;99.90;;;;;;5010578;28;20046;-72
2022/10/28 05:26:02;;;;;;;20.27;12.48;;;14.00;99.90;;;;;;4994574;28;20042;-73
2022/10/28 05:28:27;;;;;;;25.08;13.05;;;13.80;99.90;;;;;;5012004;28;20046;-73
2022/10/28 05:30:53;;;;;;;22.55;13.13;;;13.70;99.90;;;;;;5011218;28;20049;-73
2022/10/28 05:33:18;;;;;;;21.08;13.20;;;13.70;99.90;;;;;;5009972;28;20042;-73
2022/10/28 05:35:44;;;;;;;20.75;12.90;;;13.90;99.90;;;;;;5011808;28;20090;-73
2022/10/28 05:38:10;;;;;;;25.70;13.32;;;13.70;99.90;;;;;;5012066;28;20037;-73
2022/10/28 05:40:35;;;;;;;19.42;12.75;;;13.90;99.90;;;;;;5010684;28;20129;-72
2022/10/28 05:43:01;;;;;;;24.30;14.15;;;13.90;99.90;;;;;;5011573;28;20061;-72
2022/10/28 05:45:27;;;;;;;20.38;13.60;;;13.70;99.90;;;;;;5010731;28;20034;-73
2022/10/28 05:47:53;;;;;;;18.65;11.93;;;13.80;99.90;;;;;;5010753;28;20123;-73
2022/10/28 05:50:19;;;;;;;18.77;11.70;;;13.60;99.90;;;;;;5010464;28;20033;-72
2022/10/28 05:52:56;;;;;;;19.85;12.68;;;13.80;99.90;;;;;;5010215;28;20051;-72
2022/10/28 05:55:24;;;;;;;21.15;12.82;;;13.80;99.90;;;;;;5011912;28;20038;-73
2022/10/28 05:57:50;;;;;;;21.25;12.02;;;13.80;99.90;;;;;;5010502;28;20046;-73
2022/10/28 06:00:18;;;;;;;20.90;12.32;;;13.60;99.90;;;;;;5010471;28;20052;-73
2022/10/28 06:02:44;;;;;;;19.60;11.52;;;13.50;99.90;;;;;;5009942;28;20068;-73
2022/10/28 06:05:10;;;;;;;18.45;11.98;;;13.40;99.90;;;;;;5010626;28;20048;-73
2022/10/28 06:07:36;;;;;;;23.38;11.82;;;13.40;99.90;;;;;;5011693;28;20046;-73
2022/10/28 06:10:03;;;;;;;16.58;11.43;;;13.30;99.90;;;;;;4994009;28;20053;-72
2022/10/28 06:12:28;;;;;;;21.17;12.43;;;13.40;99.90;;;;;;5010021;28;20415;-72
2022/10/28 06:14:54;;;;;;;19.75;12.18;;;13.40;99.90;;;;;;5010394;28;20038;-73
2022/10/28 06:17:19;;;;;;;21.25;13.40;;;13.40;99.90;;;;;;5010146;28;20376;-73
2022/10/28 06:19:45;;;;;;;20.55;14.38;;;13.30;99.90;;;;;;5011554;28;20061;-73
2022/10/28 06:22:11;;;;;;;19.70;11.88;;;13.40;99.90;;;;;;5010031;28;20056;-73
2022/10/28 06:24:37;;;;;;;17.83;11.52;;;13.20;99.90;;;;;;5011406;28;20093;-73
2022/10/28 06:27:02;;;;;;;27.15;13.48;;;13.10;99.90;;;;;;5010442;28;20045;-72
2022/10/28 06:29:28;;;;;;;23.73;13.48;;;13.30;99.90;;;;;;5011450;28;20038;-72
2022/10/28 06:31:53;;;;;;;27.92;12.68;;;13.20;99.90;;;;;;4993763;28;20052;-72
2022/10/28 06:34:19;;;;;;;20.50;13.32;;;13.20;99.90;;;;;;5010905;28;20455;-72
2022/10/28 06:36:45;;;;;;;22.88;14.55;;;13.20;99.90;;;;;;5010356;28;20038;-72
2022/10/28 06:39:10;;;;;;;19.70;12.65;;;13.40;99.90;;;;;;5010080;28;20071;-72
2022/10/28 06:41:36;;;;;;;25.20;14.38;;;13.20;99.90;;;;;;5011328;28;20509;-72
2022/10/28 06:44:01;;;;;;;21.35;12.23;;;13.10;99.90;;;;;;5010269;28;20030;-72
2022/10/28 06:46:28;;;;;;;24.35;13.05;;;13.40;99.90;;;;;;5013581;28;20034;-72
2022/10/28 06:48:54;;;;;;;26.02;14.52;;;13.40;99.90;;;;;;5013574;28;20408;-72
2022/10/28 06:51:20;;;;;;;18.70;11.40;;;13.50;99.90;;;;;;5013871;28;20470;-72
2022/10/28 06:53:50;;;;;;;20.40;13.88;;;13.20;99.90;;;;;;5014496;28;20141;-72
2022/10/28 06:56:15;;;;;;;23.13;12.93;;;13.30;99.90;;;;;;5013632;28;20038;-72
2022/10/28 06:58:41;;;;;;;19.67;11.27;;;13.20;99.90;;;;;;5013448;28;20099;-71
2022/10/28 07:01:07;;;;;;;18.83;12.80;;;13.30;99.90;;;;;;5014587;28;20454;-71
2022/10/28 07:03:33;;;;;;;21.83;13.55;;;13.50;99.90;;;;;;5013121;28;20034;-71
2022/10/28 07:05:59;;;;;;;20.60;12.43;;;13.30;99.90;;;;;;5014688;28;20057;-72
2022/10/28 07:08:28;;;;;;;19.52;12.48;;;13.50;99.90;;;;;;5013328;28;20045;-71
2022/10/28 07:10:55;;;;;;;23.02;12.65;;;13.60;99.90;;;;;;5013336;28;20157;-72
2022/10/28 07:13:20;;;;;;;24.73;13.05;;;13.60;99.90;;;;;;5005397;28;20038;-72
2022/10/28 07:15:57;;;;;;;20.73;12.43;;;13.70;99.90;;;;;;5013211;28;20026;-72
2022/10/28 07:18:24;;;;;;;18.98;12.20;;;13.80;99.90;;;;;;5005513;28;20038;-72
2022/10/28 07:20:50;;;;;;;18.65;11.98;;;13.60;99.90;;;;;;5014390;28;20038;-72
2022/10/28 07:23:16;;;;;;;25.05;13.25;;;14.00;99.90;;;;;;5012520;28;20033;-72
2022/10/28 07:25:41;;;;;;;19.45;12.27;;;13.80;99.90;;;;;;5014335;28;20034;-71
2022/10/28 07:28:07;;;;;;;22.55;13.13;;;14.20;99.90;;;;;;5014629;28;20046;-72
2022/10/28 07:30:33;;;;;;;18.75;12.65;;;14.00;99.90;;;;;;5022574;28;20034;-71
2022/10/28 07:33:00;;;;;;;23.77;11.82;;;14.30;99.90;;;;;;5017630;28;20046;-72
2022/10/28 07:35:30;;;;;;;17.52;12.57;;;14.20;99.90;;;;;;5020078;28;20042;-72
2022/10/28 07:37:56;;;;;;;19.58;11.93;;;14.30;99.90;;;;;;5021381;28;20102;-72
2022/10/28 07:40:22;;;;;;;21.08;12.45;;;14.40;99.90;;;;;;5018584;28;20057;-71
2022/10/28 07:42:48;;;;;;;22.35;12.73;;;14.60;99.90;;;;;;5029113;28;20538;-72
2022/10/28 07:45:14;;;;;;;19.27;13.27;;;14.60;99.90;;;;;;5033856;28;20124;-72
2022/10/28 07:47:40;;;;;;;23.80;12.38;;;14.80;99.90;;;;;;5032387;28;20049;-72
2022/10/28 07:50:06;;;;;;;17.45;11.52;;;15.10;99.90;;;;;;5033622;28;20048;-73
2022/10/28 07:52:33;;;;;;;20.77;10.98;;;15.20;99.90;;;;;;5033141;28;20050;-72
2022/10/28 07:54:59;;;;;;;20.10;11.57;;;15.00;99.90;;;;;;5031642;28;20530;-72
2022/10/28 07:57:24;;;;;;;20.92;10.98;;;15.30;99.90;;;;;;5033316;28;20037;-72
2022/10/28 07:59:50;;;;;;;18.98;10.93;;;15.50;99.90;;;;;;5031982;28;20049;-72
2022/10/28 08:02:18;;;;;;;20.25;10.77;;;15.60;99.90;;;;;;5033310;28;20052;-72
2022/10/28 08:04:44;;;;;;;27.98;11.52;;;16.00;99.90;;;;;;5033320;28;20045;-72
2022/10/28 08:07:10;;;;;;;22.27;10.38;;;15.90;99.90;;;;;;5020194;28;20045;-72
2022/10/28 08:09:36;;;;;;;17.15;10.25;;;16.10;99.90;;;;;;5013337;28;20042;-72
2022/10/28 08:12:01;;;;;;;16.83;9.85;;;16.20;99.90;;;;;;5013219;28;20046;-73
2022/10/28 08:14:27;;;;;;;18.27;9.82;;;16.30;99.90;;;;;;5013052;28;20030;-78
2022/10/28 08:16:52;;;;;;;17.20;10.18;;;16.50;99.90;;;;;;5013428;28;20111;-77
2022/10/28 08:19:18;;;;;;;24.70;11.40;;;16.50;99.90;;;;;;5011848;28;20503;-77
2022/10/28 08:21:43;;;;;;;20.83;10.30;;;16.50;99.90;;;;;;5012139;28;20053;-77
2022/10/28 08:24:09;;;;;;;24.52;10.13;;;16.40;99.90;;;;;;5011422;28;20046;-77
2022/10/28 08:26:34;;;;;;;20.33;9.32;;;16.80;99.90;;;;;;5012062;28;20042;-77
2022/10/28 08:29:00;;;;;;;19.15;10.35;;;16.70;99.90;;;;;;5011991;28;20535;-77
2022/10/28 08:31:26;;;;;;;15.63;9.23;;;16.70;99.90;;;;;;5013036;28;20074;-78
2022/10/28 08:33:51;;;;;;;15.70;8.20;;;16.70;99.90;;;;;;5012680;28;20034;-78
2022/10/28 08:36:17;;;;;;;12.80;7.97;;;16.70;99.90;;;;;;4995441;28;20037;-77
2022/10/28 08:38:43;;;;;;;20.38;9.25;;;16.80;99.90;;;;;;5012846;28;20496;-77
2022/10/28 08:41:37;;;;;;;16.80;8.05;;;16.90;99.90;;;;;;5011502;28;20049;-76
2022/10/28 08:44:29;;;;;;;17.55;8.50;;;16.80;99.90;;;;;;5011041;28;20042;-71
2022/10/28 08:47:31;;;;;;;18.97;7.40;;;17.00;99.90;;;;;;5012551;28;20045;-70
2022/10/28 08:50:04;;;;;;;25.17;9.00;;;17.00;99.90;;;;;;5012649;28;20044;-70
2022/10/28 08:52:38;;;;;;;13.43;7.10;;;17.20;99.90;;;;;;5012548;28;20045;-71
2022/10/28 08:55:14;;;;;;;12.00;7.00;;;17.20;99.90;;;;;;5011340;28;20097;-70
2022/10/28 08:57:53;;;;;;;15.07;9.25;;;17.50;99.90;;;;;;5011214;28;20124;-70
2022/10/28 09:00:29;;;;;;;13.65;7.53;;;17.80;99.90;;;;;;5011738;28;20050;-71
2022/10/28 09:03:21;;;;;;;16.38;7.90;;;17.60;99.90;;;;;;5012199;28;20037;-71
2022/10/28 09:05:52;;;;;;;12.40;6.95;;;17.90;99.90;;;;;;5012487;28;20046;-70
2022/10/28 09:08:25;;;;;;;17.67;7.30;;;17.80;99.90;;;;;;5010326;28;20559;-71
2022/10/28 09:11:17;;;;;;;15.55;6.05;;;17.90;99.90;;;;;;5012514;28;20088;-71
2022/10/28 09:14:00;;;;;;;13.85;7.00;;;18.00;99.90;;;;;;5011553;28;20064;-70
2022/10/28 09:16:48;;;;;;;18.77;7.82;;;18.00;99.90;;;;;;5012272;28;20038;-70
2022/10/28 09:19:26;;;;;;;15.13;6.55;;;17.90;99.90;;;;;;5011204;28;20408;-70
2022/10/28 09:22:06;;;;;;;13.10;7.07;;;17.90;99.90;;;;;;5012198;28;20201;-70
2022/10/28 09:24:45;;;;;;;17.67;7.00;;;18.10;99.90;;;;;;5011916;28;20034;-71
2022/10/28 09:27:23;;;;;;;18.65;6.68;;;18.20;99.90;;;;;;5012246;28;20120;-71
2022/10/28 09:30:12;;;;;;;16.40;6.40;;;18.10;99.90;;;;;;5012129;28;20388;-71
2022/10/28 09:33:07;;;;;;;17.60;8.20;;;18.00;99.90;;;;;;4974493;28;20137;-71
2022/10/28 09:35:40;;;;;;;15.25;7.00;;;18.20;99.90;;;;;;5011561;28;20046;-70
2022/10/28 09:38:18;;;;;;;;;;;18.10;99.90;;;;;;5010466;28;20045;-70
2022/10/28 09:40:53;;;;;;;14.82;6.72;;;18.00;99.90;;;;;;5011716;28;19928;-70
2022/10/28 09:43:34;;;;;;;14.73;6.43;;;18.30;99.90;;;;;;5010285;28;20503;-70
2022/10/28 09:46:14;;;;;;;14.98;6.88;;;18.20;99.90;;;;;;5010947;28;20395;-70
2022/10/28 09:48:46;;;;;;;14.38;7.15;;;18.10;99.90;;;;;;5010597;28;20125;-70
2022/10/28 09:51:26;;;;;;;14.77;7.27;;;18.10;99.90;;;;;;5012016;28;20084;-70
2022/10/28 09:53:59;;;;;;;17.02;6.82;;;18.30;99.90;;;;;;5011499;28;20304;-70
2022/10/28 09:56:26;;;;;;;14.13;7.00;;;18.40;99.90;;;;;;5011885;28;20044;-70
2022/10/28 09:58:53;;;;;;;14.00;6.25;;;18.30;99.90;;;;;;5011720;28;20451;-70
2022/10/28 10:01:19;;;;;;;13.60;7.07;;;18.30;99.90;;;;;;5010346;28;20046;-70
2022/10/28 10:03:49;;;;;;;11.30;6.10;;;18.40;99.90;;;;;;5011392;28;20403;-70
2022/10/28 10:06:19;;;;;;;17.40;7.45;;;18.50;99.90;;;;;;5011718;28;20045;-71
2022/10/28 10:08:45;;;;;;;17.48;8.05;;;18.50;99.90;;;;;;5010001;28;20569;-70
2022/10/28 10:11:23;;;;;;;16.02;6.53;;;18.30;99.90;;;;;;5011445;28;20372;-70
2022/10/28 10:13:50;;;;;;;14.80;6.80;;;18.60;99.90;;;;;;5011381;28;20116;-70
2022/10/28 10:16:43;;;;;;;15.75;7.13;;;18.40;99.90;;;;;;5011648;28;20038;-70
2022/10/28 10:19:10;;;;;;;11.50;6.38;;;18.60;99.90;;;;;;5012084;28;20049;-70
2022/10/28 10:21:55;;;;;;;15.27;6.65;;;18.60;99.90;;;;;;5015557;28;20706;-70
2022/10/28 10:24:31;;;;;;;19.08;7.47;;;18.50;99.90;;;;;;5013482;28;20108;-70
2022/10/28 10:27:00;;;;;;;11.55;6.25;;;18.60;99.90;;;;;;5014687;28;20033;-70
2022/10/28 10:29:27;;;;;;;16.95;6.38;;;18.70;99.90;;;;;;5013261;28;20045;-70
2022/10/28 10:32:21;;;;;;;12.82;6.30;;;18.50;99.90;;;;;;5015147;28;20419;-70
2022/10/28 10:35:05;;;;;;;12.85;7.20;;;18.50;99.90;;;;;;5014827;28;20385;-72
2022/10/28 10:37:34;;;;;;;16.60;7.88;;;18.70;99.90;;;;;;5013035;28;20488;-70
2022/10/28 10:40:05;;;;;;;15.02;6.28;;;18.70;99.90;;;;;;5012224;28;20128;-70
2022/10/28 10:42:31;;;;;;;13.88;6.82;;;18.80;99.90;;;;;;5019389;28;20053;-70
2022/10/28 10:45:09;;;;;;;19.23;7.32;;;18.70;99.90;;;;;;5024218;28;20510;-70
2022/10/28 10:47:35;;;;;;;13.38;6.78;;;18.90;99.90;;;;;;5015102;28;20038;-70
2022/10/28 10:50:20;;;;;;;16.58;6.53;;;18.70;99.90;;;;;;5013618;28;20037;-70
2022/10/28 10:52:58;;;;;;;18.73;7.65;;;18.80;99.90;;;;;;5022311;28;20139;-71
2022/10/28 10:55:37;;;;;;;12.55;6.53;;;18.80;99.90;;;;;;5013796;28;20074;-70
2022/10/28 10:58:05;;;;;;;14.60;6.20;;;18.90;99.90;;;;;;5014738;28;20395;-70
2022/10/28 11:00:43;;;;;;;13.23;6.70;;;18.90;99.90;;;;;;5013497;28;20569;-71
2022/10/28 11:03:19;;;;;;;12.43;6.45;;;18.90;99.90;;;;;;5013325;28;20172;-71
2022/10/28 11:05:55;;;;;;;20.73;7.07;;;19.00;99.90;;;;;;5013233;28;20048;-72
2022/10/28 11:08:26;;;;;;;21.63;7.57;;;19.00;99.90;;;;;;5014444;28;20048;-70
2022/10/28 11:11:03;;;;;;;17.70;6.57;;;18.90;99.90;;;;;;5013250;28;20446;-71
2022/10/28 11:13:30;;;;;;;16.95;6.03;;;19.00;99.90;;;;;;5014135;28;20037;-71
2022/10/28 11:16:01;;;;;;;17.35;5.78;;;18.90;99.90;;;;;;5014422;28;20041;-72
2022/10/28 11:18:30;;;;;;;17.27;6.57;;;19.10;99.90;;;;;;5014447;28;20045;-78
2022/10/28 11:21:13;;;;;;;12.85;5.93;;;19.10;99.90;;;;;;4996687;28;20507;-78
2022/10/28 11:23:59;;;;;;;13.63;6.20;;;19.00;99.90;;;;;;4995200;28;20053;-78
2022/10/28 11:26:26;;;;;;;14.50;6.60;;;18.80;99.90;;;;;;5014175;28;20393;-78
2022/10/28 11:29:13;;;;;;;12.52;5.93;;;19.00;99.90;;;;;;4996521;28;20049;-78
2022/10/28 11:31:55;;;;;;;12.43;6.25;;;19.10;99.90;;;;;;5012254;28;20034;-78
2022/10/28 11:34:45;;;;;;;17.23;6.28;;;19.00;99.90;;;;;;5012536;28;20049;-78
2022/10/28 11:37:26;;;;;;;21.48;6.72;;;19.20;99.90;;;;;;5012803;28;20053;-78
2022/10/28 11:40:19;;;;;;;12.63;5.50;;;19.20;99.90;;;;;;5012746;28;20042;-78
2022/10/28 11:43:00;;;;;;;21.55;7.30;;;19.30;99.90;;;;;;5012440;28;20045;-78
2022/10/28 11:45:45;;;;;;;12.00;5.43;;;19.50;99.90;;;;;;5012645;28;20069;-78
2022/10/28 11:48:28;;;;;;;16.55;6.70;;;19.60;99.90;;;;;;5012521;28;20040;-78
2022/10/28 11:51:14;;;;;;;14.70;6.40;;;19.40;99.90;;;;;;5012556;28;20046;-78
2022/10/28 11:53:59;;;;;;;13.68;6.18;;;19.40;99.90;;;;;;5012036;28;20042;-78
2022/10/28 11:56:33;;;;;;;16.27;5.95;;;19.40;99.90;;;;;;5012399;28;20128;-79
2022/10/28 11:59:30;;;;;;;20.45;5.95;;;19.40;99.90;;;;;;5012634;28;20085;-78
2022/10/28 12:02:10;;;;;;;14.18;6.05;;;19.50;99.90;;;;;;4996056;28;20123;-78
2022/10/28 12:04:55;;;;;;;16.63;6.63;;;19.60;99.90;;;;;;5012325;28;20436;-78
2022/10/28 12:07:29;;;;;;;15.68;6.28;;;19.60;99.90;;;;;;5013459;28;20046;-78
2022/10/28 12:10:35;;;;;;;16.17;6.85;;;19.60;99.90;;;;;;5012031;28;20403;-78
2022/10/28 12:13:37;;;;;;;18.10;5.93;;;19.60;99.90;;;;;;5011711;28;20515;-78
2022/10/28 12:16:19;;;;;;;18.77;6.55;;;19.60;99.90;;;;;;5012033;28;20034;-79
2022/10/28 12:18:50;;;;;;;14.80;6.25;;;19.40;99.90;;;;;;5012238;28;20064;-78
2022/10/28 12:21:26;;;;;;;16.83;5.75;;;19.60;99.90;;;;;;5012275;28;20396;-78
2022/10/28 12:23:54;;;;;;;16.98;6.57;;;19.70;99.90;;;;;;5011433;28;20080;-78
2022/10/28 12:26:36;;;;;;;13.55;5.55;;;19.60;99.90;;;;;;5013361;28;20048;-78
2022/10/28 12:29:09;;;;;;;14.43;6.28;;;19.60;99.90;;;;;;5011904;28;20077;-78
2022/10/28 12:31:41;;;;;;;12.77;5.93;;;19.60;99.90;;;;;;5011771;28;20045;-78
2022/10/28 12:34:14;;;;;;;15.25;6.82;;;19.60;99.90;;;;;;5011290;28;20296;-78
2022/10/28 12:36:48;;;;;;;13.95;6.75;;;19.80;99.90;;;;;;5011942;28;20403;-78
2022/10/28 12:39:26;;;;;;;18.60;6.82;;;19.50;99.90;;;;;;4995250;28;20046;-78
2022/10/28 12:42:22;;;;;;;18.77;6.68;;;19.60;99.90;;;;;;5010927;28;20514;-78
2022/10/28 12:44:51;;;;;;;14.38;6.20;;;19.60;99.90;;;;;;5011763;28;20042;-78
2022/10/28 12:47:43;;;;;;;12.23;5.43;;;19.70;99.90;;;;;;5011790;28;20048;-78
2022/10/28 12:50:26;;;;;;;15.07;6.40;;;19.50;99.90;;;;;;5010992;28;20503;-77
2022/10/28 12:52:58;;;;;;;;;;;19.50;99.90;;;;;;5010032;28;20117;-78
2022/10/28 12:56:06;;;;;;;15.13;6.10;;;19.50;99.90;;;;;;4987487;28;19921;-78